Time;durP1;ratioP1;P1;durP2;ratioP2;P2;SDS_P1;SDS_P2;PMS_P1;PMS_P2;Temp;Humidity;BMP_temperature;BMP_pressure;BME280_temperature;BME280_humidity;BME280_pressure;Samples;Min_cycle;Max_cycle;Signal;HPM_P1;HPM_P2
2022/06/21 16:17:42;;;;;;;13.30;5.63;;;;;;;32.11;41.64;94220.53;5938315;23;20178;31
2022/06/21 16:20:14;;;;;;;15.27;5.50;;;;;;;32.05;41.89;94213.75;4899150;29;20235;-82
2022/06/21 16:22:49;;;;;;;12.38;5.85;;;;;;;31.97;41.35;94203.78;4909234;29;20195;-80
2022/06/21 16:25:25;;;;;;;5.20;4.68;;;;;;;31.99;41.92;94220.16;4900660;29;20200;-86
2022/06/21 16:28:03;;;;;;;11.95;6.07;;;;;;;31.91;41.71;94202.25;4907820;29;20228;-78
2022/06/21 16:30:41;;;;;;;9.27;4.97;;;;;;;31.90;41.78;94216.56;4903052;29;20691;-82
2022/06/21 16:33:13;;;;;;;9.25;5.65;;;;;;;31.57;41.83;94163.50;4893403;29;21353;-79
2022/06/21 16:35:50;;;;;;;9.10;5.32;;;;;;;31.76;41.74;94208.50;4895638;29;20201;-85
2022/06/21 16:38:26;;;;;;;9.57;4.65;;;;;;;31.49;41.58;94179.97;4900652;29;20247;-86
2022/06/21 16:44:02;;;;;;;8.20;4.82;;;;;;;31.56;42.02;94227.22;4865544;29;20709;-84
2022/06/21 16:46:35;;;;;;;7.10;5.13;;;;;;;31.56;42.28;94232.50;4865008;29;20241;-81
2022/06/21 16:49:13;;;;;;;5.13;4.50;;;;;;;31.55;42.19;94247.56;4863966;29;20229;-86
2022/06/21 16:51:44;;;;;;;8.20;4.57;;;;;;;31.47;41.90;94243.69;4868412;29;20206;-78
2022/06/21 16:54:26;;;;;;;8.38;4.70;;;;;;;31.42;41.94;94240.31;4868286;29;20200;-79
2022/06/21 16:56:53;;;;;;;9.45;5.18;;;;;;;31.35;42.16;94240.66;4867176;29;20201;-81
2022/06/21 16:59:22;;;;;;;8.93;5.07;;;;;;;31.30;42.65;94237.25;4860396;29;20270;-78
2022/06/21 17:01:51;;;;;;;5.28;4.78;;;;;;;31.21;42.53;94240.47;4862523;29;20198;-79
2022/06/21 17:04:22;;;;;;;8.50;5.50;;;;;;;31.16;42.48;94237.88;4870842;29;20384;-80
2022/06/21 17:06:52;;;;;;;7.43;4.85;;;;;;;31.10;42.86;94238.19;4861954;29;20193;-83
2022/06/21 17:09:23;;;;;;;10.32;5.13;;;;;;;31.04;42.57;94245.34;4871663;29;20224;-82
2022/06/21 17:12:01;;;;;;;7.07;5.10;;;;;;;30.91;43.57;94241.50;4867803;29;20208;-80
2022/06/21 17:14:47;;;;;;;12.77;6.20;;;;;;;30.84;44.42;94243.69;4869914;29;20297;-81
2022/06/21 17:17:23;;;;;;;11.25;5.70;;;;;;;30.76;45.26;94240.84;4867005;29;20730;-81
2022/06/21 17:20:07;;;;;;;9.98;5.45;;;;;;;30.65;45.45;94234.78;4900287;29;20230;-80
2022/06/21 17:22:41;;;;;;;10.18;5.55;;;;;;;30.58;45.75;94229.84;4909143;29;20198;-77
2022/06/21 17:25:10;;;;;;;14.00;6.57;;;;;;;30.53;45.92;94232.50;4906371;29;20556;-79
2022/06/21 17:27:57;;;;;;;11.73;5.38;;;;;;;30.46;46.20;94235.44;4901047;29;20196;-78
2022/06/21 17:30:31;;;;;;;8.18;5.32;;;;;;;30.39;46.01;94234.16;4893800;29;20667;-78
2022/06/21 17:33:08;;;;;;;9.75;6.18;;;;;;;30.34;46.10;94242.91;4892984;29;20211;-80
2022/06/21 17:35:40;;;;;;;7.78;6.05;;;;;;;30.30;46.64;94249.78;4892906;29;20691;-79
2022/06/21 17:38:13;;;;;;;15.40;5.90;;;;;;;30.21;46.66;94238.22;4893516;29;20672;-81
2022/06/21 17:40:50;;;;;;;12.80;5.80;;;;;;;30.10;46.46;94226.91;4908267;29;20731;-80
2022/06/21 17:43:25;;;;;;;10.65;6.13;;;;;;;30.09;46.97;94235.06;4895729;29;20199;-79
2022/06/21 17:45:56;;;;;;;8.15;5.82;;;;;;;30.08;47.01;94259.88;4893203;29;20203;-79
2022/06/21 17:48:30;;;;;;;9.05;5.70;;;;;;;30.01;46.84;94257.53;4895780;29;20741;-79
2022/06/21 17:51:02;;;;;;;12.95;5.57;;;;;;;29.96;46.94;94263.59;4905867;29;20268;-80
2022/06/21 17:53:35;;;;;;;15.63;7.43;;;;;;;29.89;47.80;94263.13;4910329;29;20206;-80
2022/06/21 17:56:06;;;;;;;7.25;5.43;;;;;;;29.84;47.81;94260.50;4892249;29;20239;-79
2022/06/21 17:58:39;;;;;;;7.40;5.80;;;;;;;29.79;47.65;94259.72;4894657;29;20219;-80
2022/06/21 18:01:14;;;;;;;9.85;6.43;;;;;;;29.72;47.63;94246.81;4901223;29;20414;-79
2022/06/21 18:03:55;;;;;;;8.48;5.75;;;;;;;29.69;47.88;94242.88;4894541;29;20204;-80
2022/06/21 18:06:30;;;;;;;10.25;6.25;;;;;;;29.64;47.43;94234.19;4892497;29;20203;-78
2022/06/21 18:09:19;;;;;;;8.77;5.63;;;;;;;29.58;47.80;94225.53;4893237;29;20262;-79
2022/06/21 18:11:55;;;;;;;11.20;5.68;;;;;;;29.50;47.63;94224.19;4896693;29;20196;-78
2022/06/21 18:14:26;;;;;;;8.68;6.38;;;;;;;29.49;47.40;94222.59;4892195;29;20683;-79
2022/06/21 18:17:05;;;;;;;10.30;6.10;;;;;;;29.44;47.58;94227.88;4892566;29;20200;-80
2022/06/21 18:19:46;;;;;;;9.45;5.85;;;;;;;29.41;47.24;94232.91;4900802;29;20315;-79
2022/06/21 18:22:25;;;;;;;9.50;6.05;;;;;;;29.36;47.28;94227.63;4901959;29;20646;-80
2022/06/21 18:25:00;;;;;;;8.43;6.20;;;;;;;29.26;47.46;94225.78;4889466;29;20197;-77
2022/06/21 18:27:36;;;;;;;12.55;7.07;;;;;;;29.24;47.08;94249.78;4893185;29;20196;-79
2022/06/21 18:30:07;;;;;;;8.48;5.75;;;;;;;29.21;47.46;94257.41;4906432;29;20659;-81
2022/06/21 18:32:45;;;;;;;6.53;5.25;;;;;;;29.06;47.31;94237.16;4904372;29;20199;-83
2022/06/21 18:35:13;;;;;;;7.50;5.88;;;;;;;29.10;47.18;94251.38;4905834;29;20200;-86
2022/06/21 18:38:03;;;;;;;10.80;5.43;;;;;;;29.06;47.03;94258.22;4904688;29;20200;-81
2022/06/21 18:40:41;;;;;;;7.88;5.38;;;;;;;28.99;47.07;94255.84;4904733;29;20225;-87
2022/06/21 18:43:18;;;;;;;9.15;5.57;;;;;;;28.95;47.19;94254.75;4900560;29;20202;-82
2022/06/21 18:45:55;;;;;;;6.10;5.50;;;;;;;28.91;47.11;94261.59;4912039;29;20282;-85
2022/06/21 18:48:46;;;;;;;11.57;5.45;;;;;;;28.86;47.23;94261.59;4904326;29;20228;-82
2022/06/21 18:51:20;;;;;;;7.03;5.30;;;;;;;28.82;47.37;94246.59;4901403;29;20211;-82
2022/06/21 18:54:02;;;;;;;5.50;4.93;;;;;;;28.78;47.39;94241.06;4912301;29;20198;-83
2022/06/21 18:56:41;;;;;;;8.82;5.38;;;;;;;28.73;47.58;94235.78;4902992;29;20581;-83
2022/06/21 18:59:22;;;;;;;6.10;5.50;;;;;;;28.64;47.41;94240.78;4892486;29;20200;-80
2022/06/21 19:01:58;;;;;;;5.63;5.13;;;;;;;28.60;47.44;94233.69;4904620;29;20211;-80
2022/06/21 19:10:14;;;;;;;10.23;5.28;;;;;;;28.39;47.82;94265.19;4898411;29;20271;-83
2022/06/21 19:12:47;;;;;;;5.88;5.28;;;;;;;28.32;47.67;94261.97;4898826;29;20286;-84
2022/06/21 19:15:19;;;;;;;5.45;4.78;;;;;;;28.50;47.84;94310.75;4911948;29;20584;-84
2022/06/21 19:18:12;;;;;;;6.93;5.18;;;;;;;28.38;47.81;94284.66;4915126;29;20204;-83
2022/06/21 19:21:01;;;;;;;6.22;5.45;;;;;;;28.44;47.74;94293.34;4914578;29;20278;-83
2022/06/21 19:24:14;;;;;;;6.70;5.38;;;;;;;28.41;47.95;94305.19;4902071;29;20207;-83
2022/06/21 19:26:54;;;;;;;5.60;4.95;;;;;;;28.37;47.93;94301.50;4899624;29;20203;-84
2022/06/21 19:29:57;;;;;;;6.97;4.50;;;;;;;28.33;48.02;94304.88;4907533;29;20215;-84
2022/06/21 19:32:45;;;;;;;11.57;4.63;;;;;;;28.31;48.95;94318.25;4912168;29;20203;-88
2022/06/21 19:35:37;;;;;;;12.00;5.28;;;;;;;28.21;49.26;94311.13;4913244;29;20211;-83
2022/06/21 19:38:18;;;;;;;12.00;5.68;;;;;;;28.24;49.75;94334.31;4898904;29;20290;-83
2022/06/21 19:40:57;;;;;;;7.75;4.95;;;;;;;28.16;49.49;94329.53;4902817;29;20275;-81
2022/06/21 19:43:45;;;;;;;9.35;5.20;;;;;;;28.22;49.31;94348.75;4911021;29;20192;-82
2022/06/21 19:46:17;;;;;;;10.43;5.03;;;;;;;28.08;49.51;94330.00;4903707;29;20188;-84
2022/06/21 19:48:53;;;;;;;8.18;5.05;;;;;;;27.86;49.21;94303.88;4914619;29;20315;-84
2022/06/21 19:51:24;;;;;;;13.02;5.68;;;;;;;27.91;49.45;94316.25;4902671;29;20657;-81
2022/06/21 19:53:55;;;;;;;8.15;5.53;;;;;;;28.14;49.86;94365.00;4895118;29;20235;-82
2022/06/21 19:56:43;;;;;;;10.45;4.95;;;;;;;28.11;49.76;94371.56;4898531;29;20195;-83
2022/06/21 19:59:26;;;;;;;12.90;5.47;;;;;;;28.08;50.27;94364.19;4910518;29;20682;-81
2022/06/21 20:02:09;;;;;;;10.07;4.82;;;;;;;28.05;50.24;94356.81;4900822;29;20196;-81
2022/06/21 20:05:02;;;;;;;6.85;5.15;;;;;;;28.01;50.25;94347.84;4907907;29;20203;-84
2022/06/21 20:07:34;;;;;;;9.20;5.25;;;;;;;27.65;50.11;94302.16;4857923;29;20700;-82
2022/06/21 20:10:02;;;;;;;9.82;5.00;;;;;;;27.97;50.03;94349.41;4855337;29;20269;-83
2022/06/21 20:12:30;;;;;;;7.45;4.75;;;;;;;27.87;50.04;94318.59;4862997;29;20213;-83
2022/06/21 20:15:09;;;;;;;10.90;5.20;;;;;;;27.90;50.39;94333.88;4871250;29;20201;-81
2022/06/21 20:17:44;;;;;;;13.23;4.82;;;;;;;27.81;50.14;94316.19;4865802;29;20554;-89
2022/06/21 20:20:22;;;;;;;8.02;5.10;;;;;;;27.86;49.98;94343.31;4855414;29;20239;-80
2022/06/21 20:23:01;;;;;;;7.15;4.70;;;;;;;27.79;49.91;94342.72;4863157;29;20201;-79
2022/06/21 20:25:41;;;;;;;15.98;5.43;;;;;;;27.77;50.35;94342.19;4855085;29;20208;-81
2022/06/21 20:28:28;;;;;;;7.80;5.43;;;;;;;27.74;49.96;94343.47;4862358;29;20402;-79
2022/06/21 20:31:01;;;;;;;8.05;4.57;;;;;;;27.70;50.39;94337.13;4855624;29;20198;-77
2022/06/21 20:33:33;;;;;;;8.45;5.32;;;;;;;27.69;50.13;94332.91;4856526;29;20209;-79
2022/06/21 20:36:05;;;;;;;9.10;5.20;;;;;;;27.67;49.96;94337.63;4861431;29;20200;-82
2022/06/21 20:38:39;;;;;;;8.80;5.00;;;;;;;27.62;50.14;94334.97;4854696;29;20206;-84
2022/06/21 20:41:13;;;;;;;9.95;5.00;;;;;;;27.62;50.38;94334.16;4856712;29;20202;-80
2022/06/21 20:43:49;;;;;;;9.10;5.05;;;;;;;27.59;50.60;94324.16;4870217;29;20235;-79
2022/06/21 20:46:37;;;;;;;7.63;5.22;;;;;;;27.56;50.82;94337.81;4907035;29;20210;-79
2022/06/21 20:49:06;;;;;;;8.77;4.90;;;;;;;27.53;50.91;94323.34;4900159;29;20646;-78
2022/06/21 20:51:34;;;;;;;7.90;4.30;;;;;;;27.50;51.35;94322.03;4912326;29;20203;-79
2022/06/21 20:54:20;;;;;;;7.07;5.05;;;;;;;27.48;50.78;94326.72;4913272;29;20195;-78
2022/06/21 20:57:00;;;;;;;9.88;5.32;;;;;;;27.46;50.86;94320.94;4910824;29;20549;-78
2022/06/21 20:59:34;;;;;;;6.78;4.90;;;;;;;27.42;51.08;94316.44;4897559;29;20259;-78
2022/06/21 21:02:06;;;;;;;8.75;4.68;;;;;;;27.35;51.02;94305.34;4894399;29;20204;-78
2022/06/21 21:04:40;;;;;;;11.55;5.30;;;;;;;27.37;51.17;94306.66;4895196;29;20200;-80
2022/06/21 21:07:10;;;;;;;6.88;4.85;;;;;;;27.36;51.43;94307.72;4908257;29;20225;-80
2022/06/21 21:09:43;;;;;;;7.15;4.35;;;;;;;27.34;51.33;94309.81;4907660;29;20238;-83
2022/06/21 21:12:14;;;;;;;10.15;5.32;;;;;;;27.26;51.51;94302.41;4906293;29;20206;-80
2022/06/21 21:14:43;;;;;;;10.32;4.80;;;;;;;27.27;51.44;94306.59;4900989;29;20188;-78
2022/06/21 21:17:15;;;;;;;6.05;4.43;;;;;;;27.22;51.73;94307.34;4908585;29;20204;-78
2022/06/21 21:19:48;;;;;;;11.27;4.90;;;;;;;27.21;51.41;94311.03;4896191;29;20252;-79
2022/06/21 21:22:18;;;;;;;7.00;4.50;;;;;;;27.19;51.24;94307.06;4896148;29;20226;-78
2022/06/21 21:24:51;;;;;;;7.43;4.80;;;;;;;27.17;51.62;94314.41;4896526;29;20584;-78
2022/06/21 21:27:21;;;;;;;8.95;5.18;;;;;;;27.13;51.44;94311.47;4896244;29;20192;-78
2022/06/21 21:29:51;;;;;;;6.57;4.53;;;;;;;27.11;51.65;94310.94;4898254;29;20318;-78
2022/06/21 21:32:54;;;;;;;6.95;4.90;;;;;;;27.09;51.32;94314.84;4915105;29;20200;-78
2022/06/21 21:35:33;;;;;;;8.00;5.20;;;;;;;27.00;51.54;94293.50;4865352;29;20197;-78
2022/06/21 21:38:06;;;;;;;11.25;4.53;;;;;;;27.01;51.89;94302.94;4854236;29;20729;-78
2022/06/21 21:40:50;;;;;;;7.05;5.00;;;;;;;26.99;51.86;94313.69;4856462;29;20219;-79
2022/06/21 21:43:20;;;;;;;11.27;4.65;;;;;;;26.97;52.07;94314.97;4858180;29;20193;-79
2022/06/21 21:45:56;;;;;;;7.78;5.05;;;;;;;26.93;52.09;94312.06;4860260;29;20197;-79
2022/06/21 21:48:27;;;;;;;7.25;5.18;;;;;;;26.88;52.04;94308.59;4862056;29;20201;-79
2022/06/21 21:50:55;;;;;;;6.40;4.68;;;;;;;26.84;52.22;94310.94;4864617;29;20239;-80
2022/06/21 21:53:25;;;;;;;7.18;4.47;;;;;;;26.83;52.37;94317.22;4863062;29;20202;-79
2022/06/21 21:55:54;;;;;;;5.53;4.88;;;;;;;26.84;52.16;94316.19;4854826;29;20707;-79
2022/06/21 21:58:22;;;;;;;5.95;4.80;;;;;;;26.82;52.54;94313.03;4858777;29;21935;-79
2022/06/21 22:00:58;;;;;;;7.05;4.78;;;;;;;26.80;52.67;94316.91;4855736;29;20201;-78
2022/06/21 22:03:46;;;;;;;5.10;4.63;;;;;;;26.76;52.52;94311.38;4865506;29;20189;-78
2022/06/21 22:06:34;;;;;;;10.57;5.35;;;;;;;26.65;52.79;94296.59;4861725;29;20194;-78
2022/06/21 22:09:10;;;;;;;8.18;5.30;;;;;;;26.68;52.33;94304.72;4860644;29;20207;-79
2022/06/21 22:11:44;;;;;;;6.35;5.00;;;;;;;26.68;52.68;94315.22;4872008;29;20192;-79
2022/06/21 22:14:22;;;;;;;7.15;4.97;;;;;;;26.63;52.71;94312.56;4891218;29;20196;-79
2022/06/21 22:16:57;;;;;;;7.18;5.00;;;;;;;26.62;53.01;94302.31;4894229;29;20199;-78
2022/06/21 22:19:36;;;;;;;8.85;5.78;;;;;;;26.58;53.03;94314.34;4900438;29;20253;-79
2022/06/21 22:22:03;;;;;;;7.15;5.25;;;;;;;26.57;52.92;94318.00;4897437;29;20196;-78
2022/06/21 22:24:38;;;;;;;10.65;4.95;;;;;;;26.54;53.33;94308.00;4900503;29;21753;-78
2022/06/21 22:27:14;;;;;;;5.13;4.53;;;;;;;26.48;53.08;94304.53;4897348;29;20192;-79
2022/06/21 22:29:45;;;;;;;5.70;5.20;;;;;;;26.48;53.37;94307.94;4903859;29;20235;-78
2022/06/21 22:32:23;;;;;;;7.78;4.60;;;;;;;26.44;53.63;94299.00;4906528;29;20751;-78
2022/06/21 22:34:53;;;;;;;5.57;4.65;;;;;;;26.41;53.71;94299.44;4894104;29;20266;-77
2022/06/21 22:37:26;;;;;;;8.85;4.97;;;;;;;26.37;53.80;94298.34;4905198;29;20196;-77
2022/06/21 22:39:58;;;;;;;7.72;5.18;;;;;;;26.33;54.00;94292.00;4901017;29;20582;-78
2022/06/21 22:42:28;;;;;;;6.70;5.20;;;;;;;26.26;53.83;94286.97;4898238;29;20184;-78
2022/06/21 22:44:58;;;;;;;8.82;5.18;;;;;;;26.32;53.85;94292.25;4903131;29;20192;-77
2022/06/21 22:47:29;;;;;;;7.85;4.60;;;;;;;26.29;54.07;94293.53;4897434;29;20192;-78
2022/06/21 22:50:02;;;;;;;7.47;5.20;;;;;;;26.26;54.05;94292.22;4906712;29;20725;-78
2022/06/21 22:52:34;;;;;;;9.13;5.07;;;;;;;26.18;54.22;94284.78;4895110;29;20227;-77
2022/06/21 22:55:02;;;;;;;6.93;5.07;;;;;;;26.19;54.37;94286.34;4899010;29;20208;-78
2022/06/21 22:57:32;;;;;;;5.25;4.75;;;;;;;26.11;54.42;94280.75;4904355;29;20188;-78
2022/06/21 23:00:04;;;;;;;5.30;4.50;;;;;;;26.14;54.67;94281.06;4912274;29;20188;-78
2022/06/21 23:02:41;;;;;;;9.45;5.22;;;;;;;26.11;54.93;94281.53;4915669;29;20200;-78
2022/06/21 23:05:21;;;;;;;6.82;4.93;;;;;;;26.09;54.75;94286.25;4902022;29;20198;-78
2022/06/21 23:07:52;;;;;;;9.27;5.40;;;;;;;26.06;55.00;94280.69;4903868;29;20675;-79
2022/06/21 23:10:24;;;;;;;5.38;4.80;;;;;;;26.05;54.91;94282.53;4903182;29;20213;-79
2022/06/21 23:12:58;;;;;;;5.63;5.13;;;;;;;26.02;55.12;94291.66;4907442;29;20188;-79
2022/06/21 23:15:27;;;;;;;6.45;5.00;;;;;;;25.97;55.13;94286.34;4897709;29;20199;-79
2022/06/21 23:17:57;;;;;;;9.00;5.72;;;;;;;25.99;55.41;94299.19;4898351;29;20196;-78
2022/06/21 23:20:25;;;;;;;7.97;5.05;;;;;;;25.97;55.18;94302.06;4915531;29;20234;-78
2022/06/21 23:22:54;;;;;;;6.22;5.05;;;;;;;25.97;55.28;94296.03;4920485;29;20195;-79
2022/06/21 23:25:28;;;;;;;6.72;5.07;;;;;;;25.95;55.12;94301.53;4917584;29;20667;-79
2022/06/21 23:27:56;;;;;;;11.23;5.97;;;;;;;25.91;55.31;94297.03;4923285;29;20188;-79
2022/06/21 23:30:25;;;;;;;9.32;5.18;;;;;;;25.90;55.05;94298.81;4921009;29;20253;-77
2022/06/21 23:32:55;;;;;;;7.00;5.00;;;;;;;25.84;55.53;94296.41;4928692;29;20191;-80
2022/06/21 23:35:31;;;;;;;8.07;5.25;;;;;;;25.86;55.44;94302.97;4925829;29;20678;-79
2022/06/21 23:37:58;;;;;;;7.55;5.00;;;;;;;25.85;55.42;94305.84;4899607;29;20211;-78
2022/06/21 23:40:30;;;;;;;5.65;5.10;;;;;;;25.77;55.12;94293.94;4926722;29;20333;-77
2022/06/21 23:42:57;;;;;;;8.85;4.93;;;;;;;25.80;55.56;94296.09;4916382;29;20187;-77
2022/06/21 23:45:30;;;;;;;5.95;4.88;;;;;;;25.77;55.12;94299.19;4924890;29;20195;-78
2022/06/21 23:47:59;;;;;;;7.63;5.68;;;;;;;25.79;55.27;94298.94;4919989;29;20184;-78
2022/06/21 23:50:32;;;;;;;9.18;5.60;;;;;;;25.70;55.45;94296.72;4920107;29;20289;-78
2022/06/21 23:53:03;;;;;;;6.95;5.35;;;;;;;25.74;55.53;94315.38;4916042;29;20615;-78
2022/06/21 23:55:31;;;;;;;6.45;5.35;;;;;;;25.70;55.40;94315.06;4922121;29;20188;-78
2022/06/21 23:57:59;;;;;;;6.40;5.07;;;;;;;25.67;55.74;94312.13;4924032;29;20266;-78
